This is the latest recevied weather packets stored in our database for station/object BARLOW-WX. If no packets are shown the sender has not sent any weather packets the latest 10 day(s).
| Time | Temp. | Humidity | Pressure | Rain* | Wind** | Luminosity | Snow |
|---|---|---|---|---|---|---|---|
| 1788106585 | 20.56° C | 84% | 988.4 hPa | 0 mm | - | - | - |
| 1788105681 | 20.56° C | 84% | 988.4 hPa | 0 mm | - | - | - |
| 1788104784 | 20.56° C | 82% | 989.5 hPa | 2.03 mm | - | - | - |
| 1788103885 | 20.56° C | 75% | 988.1 hPa | 2.03 mm | - | - | - |
| 1788102983 | 21.11° C | 75% | 988.2 hPa | 0 mm | - | - | - |
| 1788102080 | 20.56° C | 75% | 988.2 hPa | 0 mm | - | - | - |
| 1788101183 | 20.56° C | 86% | 990.4 hPa | 1.52 mm | - | - | - |
| 1788100529 | 20.56° C | 86% | 990.4 hPa | 1.52 mm | - | - | - |
| 1788059775 | 20.56° C | 81% | 989.8 hPa | 0.25 mm | - | - | - |
| 1788058880 | 20.56° C | 81% | 989.8 hPa | 0.25 mm | - | - | - |
| 1788057979 | 20.56° C | 80% | 990 hPa | 0 mm | - | - | - |
| 1788057075 | 20.56° C | 78% | 990.5 hPa | 0 mm | - | - | - |
| 1788056178 | 20.56° C | 78% | 990.5 hPa | 0 mm | - | - | - |
| 1788055275 | 21.11° C | 78% | 990.5 hPa | 0 mm | - | - | - |
| 1788054375 | 21.11° C | 77% | 989.7 hPa | 0 mm | - | - | - |
| 1788053478 | 21.11° C | 77% | 989.7 hPa | 0 mm | - | - | - |
| 1788052575 | 20.56° C | 77% | 989.6 hPa | 0 mm | - | - | - |
| 1788051678 | 21.11° C | 77% | 989.6 hPa | 0 mm | - | - | - |
| 1788050774 | 21.11° C | 85% | 990.7 hPa | 0 mm | - | - | - |
| 1788049878 | 21.11° C | 75% | 990.8 hPa | 0 mm | - | - | - |
| 1788048974 | 21.11° C | 75% | 990.8 hPa | 0 mm | - | - | - |
| 1788048079 | 21.67° C | 75% | 990.8 hPa | 0 mm | - | - | - |
| 1788047174 | 21.67° C | 75% | 991 hPa | 0 mm | - | - | - |
| 1788046280 | 22.22° C | 67% | 990.3 hPa | 0 mm | - | - | - |
| 1788045377 | 22.22° C | 67% | 990.3 hPa | 0 mm | - | - | - |
* Rain latest hour (hover to see other rain measurements)
** Current wind speed in m/s (hover to see current wind gust speed)